Phillipsport, New York
Current Conditions -  °F | °C
As of 11:16 AM on Sunday 21 Dec 2014 (Local Time) from KMGJ Reporting Station
Overcast Overcast  
Wind Chill: 32°   Ceiling: 2000
Heat Index: 32°   Visibility: 10mi
Dew Point: 27°   Wind: 3mph
Humidity: 82%   Direction: 20°NNE
Pressure: 30.3"   Gusts: NA
Location:  41.65°N, 74.44°W
Report Text: KMGJ 211616Z AUTO 02003KT 10SM SCT012 OVC020 00/M03 A3030 RMK AO2 T00001028 TSNO
Loading
Personal Weather Stations






























Interactive Weather Map New forecast layout! Learn more

10-Day Weather Forecast

Advertisements
Track Severe Weather on mobile